SWR1LK EDDF-LSZH
Flight info
| Callsign | SWR1LK |
|---|---|
| Flight time | 0h 31m |
| Altitude | 23000 |
| Route | ANEKI2L/18 ANEKI Y163 NEKLO Y171 INKAM T725 LAMGO T721 RILAX |
| Aircraft | A321/M-SDE3FGHIRWY/LB1 |
Departure
| Time | 2026-05-06 19:23 |
|---|---|
| Airport | Frankfurt Main Airport (EDDF) |
Arrival
| Time | 2026-05-06 19:54 |
|---|---|
| Airport | Zürich Airport (LSZH) |
| Time | Latitude | Longitude | Altitude | Speed | Heading |
|---|---|---|---|---|---|
| 2026-05-06 19:02 | 50.04444 | 8.56327 | 355 ft | 0 kts | 168° |
| 2026-05-06 19:10 | 50.04448 | 8.56326 | 346 ft | 2 kts | 166° |
| 2026-05-06 19:11 | 50.04465 | 8.56322 | 354 ft | 2 kts | 167° |
| 2026-05-06 19:11 | 50.04475 | 8.56320 | 355 ft | 2 kts | 186° |
| 2026-05-06 19:11 | 50.04492 | 8.56321 | 353 ft | 2 kts | 209° |
| 2026-05-06 19:11 | 50.04506 | 8.56343 | 356 ft | 1 kts | 243° |
| 2026-05-06 19:12 | 50.04507 | 8.56346 | 356 ft | 0 kts | 252° |
| 2026-05-06 19:15 | 50.04501 | 8.56316 | 351 ft | 7 kts | 252° |
| 2026-05-06 19:15 | 50.04476 | 8.56209 | 349 ft | 11 kts | 249° |
| 2026-05-06 19:15 | 50.04451 | 8.56107 | 354 ft | 9 kts | 249° |
| 2026-05-06 19:16 | 50.04409 | 8.56033 | 348 ft | 10 kts | 193° |
| 2026-05-06 19:16 | 50.04344 | 8.56056 | 353 ft | 10 kts | 160° |
| 2026-05-06 19:16 | 50.04279 | 8.56058 | 352 ft | 9 kts | 208° |
| 2026-05-06 19:16 | 50.04248 | 8.55977 | 354 ft | 9 kts | 248° |
| 2026-05-06 19:17 | 50.04228 | 8.55892 | 348 ft | 8 kts | 250° |
| 2026-05-06 19:17 | 50.04200 | 8.55772 | 346 ft | 16 kts | 250° |
| 2026-05-06 19:17 | 50.04160 | 8.55599 | 353 ft | 18 kts | 250° |
| 2026-05-06 19:17 | 50.04116 | 8.55413 | 350 ft | 19 kts | 249° |
| 2026-05-06 19:18 | 50.04067 | 8.55217 | 353 ft | 20 kts | 248° |
| 2026-05-06 19:18 | 50.04019 | 8.55014 | 350 ft | 19 kts | 250° |
| 2026-05-06 19:18 | 50.03972 | 8.54812 | 351 ft | 20 kts | 249° |
| 2026-05-06 19:18 | 50.03921 | 8.54602 | 349 ft | 22 kts | 249° |
| 2026-05-06 19:19 | 50.03863 | 8.54378 | 353 ft | 23 kts | 242° |
| 2026-05-06 19:19 | 50.03788 | 8.54171 | 350 ft | 22 kts | 251° |
| 2026-05-06 19:19 | 50.03737 | 8.53947 | 350 ft | 22 kts | 249° |
| 2026-05-06 19:19 | 50.03680 | 8.53718 | 352 ft | 23 kts | 249° |
| 2026-05-06 19:20 | 50.03625 | 8.53490 | 347 ft | 22 kts | 250° |
| 2026-05-06 19:20 | 50.03573 | 8.53279 | 353 ft | 15 kts | 249° |
| 2026-05-06 19:20 | 50.03536 | 8.53125 | 347 ft | 15 kts | 250° |
| 2026-05-06 19:20 | 50.03500 | 8.52977 | 350 ft | 14 kts | 249° |
| 2026-05-06 19:21 | 50.03464 | 8.52833 | 352 ft | 14 kts | 249° |
| 2026-05-06 19:21 | 50.03426 | 8.52678 | 351 ft | 16 kts | 249° |
| 2026-05-06 19:21 | 50.03367 | 8.52593 | 351 ft | 6 kts | 182° |
| 2026-05-06 19:21 | 50.03344 | 8.52592 | 349 ft | 7 kts | 181° |
| 2026-05-06 19:22 | 50.03050 | 8.52591 | 346 ft | 79 kts | 180° |
| 2026-05-06 19:22 | 50.02290 | 8.52600 | 354 ft | 137 kts | 180° |
| 2026-05-06 19:22 | 50.01183 | 8.52611 | 355 ft | 178 kts | 180° |
| 2026-05-06 19:22 | 49.99926 | 8.52641 | 871 ft | 177 kts | 181° |
| 2026-05-06 19:23 | 49.98700 | 8.52712 | 1548 ft | 177 kts | 180° |
| 2026-05-06 19:23 | 49.97408 | 8.52802 | 1897 ft | 196 kts | 179° |
| 2026-05-06 19:23 | 49.95981 | 8.52907 | 2062 ft | 216 kts | 179° |
| 2026-05-06 19:23 | 49.94404 | 8.53023 | 2361 ft | 234 kts | 179° |
| 2026-05-06 19:24 | 49.92784 | 8.53140 | 3130 ft | 235 kts | 179° |
| 2026-05-06 19:24 | 49.91159 | 8.53256 | 4046 ft | 233 kts | 180° |
| 2026-05-06 19:24 | 49.89543 | 8.53369 | 4931 ft | 232 kts | 180° |
| 2026-05-06 19:24 | 49.87923 | 8.53481 | 5755 ft | 234 kts | 180° |
| 2026-05-06 19:25 | 49.86289 | 8.53593 | 6521 ft | 236 kts | 180° |
| 2026-05-06 19:25 | 49.84635 | 8.53708 | 7254 ft | 239 kts | 180° |
| 2026-05-06 19:25 | 49.82961 | 8.53825 | 7992 ft | 243 kts | 180° |
| 2026-05-06 19:25 | 49.81260 | 8.53939 | 8747 ft | 246 kts | 180° |
| 2026-05-06 19:26 | 49.79541 | 8.54055 | 9499 ft | 249 kts | 180° |
| 2026-05-06 19:26 | 49.77803 | 8.54111 | 10192 ft | 252 kts | 187° |
| 2026-05-06 19:26 | 49.75980 | 8.53874 | 10475 ft | 274 kts | 187° |
| 2026-05-06 19:26 | 49.73996 | 8.53595 | 10688 ft | 297 kts | 187° |
| 2026-05-06 19:27 | 49.71859 | 8.53299 | 10881 ft | 320 kts | 187° |
| 2026-05-06 19:27 | 49.69554 | 8.52991 | 11030 ft | 344 kts | 186° |
| 2026-05-06 19:27 | 49.67094 | 8.52667 | 11188 ft | 364 kts | 186° |
| 2026-05-06 19:27 | 49.64567 | 8.52338 | 11706 ft | 372 kts | 186° |
| 2026-05-06 19:28 | 49.61970 | 8.52003 | 12372 ft | 377 kts | 186° |
| 2026-05-06 19:28 | 49.59349 | 8.51665 | 13027 ft | 381 kts | 186° |
| 2026-05-06 19:28 | 49.56693 | 8.51315 | 13668 ft | 385 kts | 186° |
| 2026-05-06 19:28 | 49.54004 | 8.50955 | 14241 ft | 389 kts | 186° |
| 2026-05-06 19:29 | 49.51298 | 8.50596 | 14825 ft | 392 kts | 185° |
| 2026-05-06 19:29 | 49.48568 | 8.50240 | 15423 ft | 394 kts | 185° |
| 2026-05-06 19:29 | 49.45821 | 8.49885 | 16020 ft | 397 kts | 185° |
| 2026-05-06 19:29 | 49.43066 | 8.49531 | 16623 ft | 399 kts | 185° |
| 2026-05-06 19:30 | 49.40290 | 8.49169 | 17204 ft | 401 kts | 185° |
| 2026-05-06 19:30 | 49.37487 | 8.48800 | 17771 ft | 404 kts | 185° |
| 2026-05-06 19:30 | 49.34712 | 8.48433 | 18302 ft | 407 kts | 185° |
| 2026-05-06 19:30 | 49.31872 | 8.48313 | 18771 ft | 410 kts | 177° |
| 2026-05-06 19:31 | 49.29041 | 8.48926 | 19239 ft | 413 kts | 167° |
| 2026-05-06 19:31 | 49.26296 | 8.50269 | 19748 ft | 416 kts | 158° |
| 2026-05-06 19:31 | 49.21253 | 8.54725 | 20729 ft | 421 kts | 148° |
| 2026-05-06 19:32 | 49.18766 | 8.57128 | 21233 ft | 424 kts | 148° |
| 2026-05-06 19:32 | 49.16263 | 8.59541 | 21714 ft | 426 kts | 149° |
| 2026-05-06 19:32 | 49.13641 | 8.61667 | 22180 ft | 428 kts | 157° |
| 2026-05-06 19:32 | 49.10893 | 8.63462 | 22658 ft | 430 kts | 157° |
| 2026-05-06 19:33 | 49.08128 | 8.65262 | 22829 ft | 434 kts | 157° |
| 2026-05-06 19:33 | 49.05324 | 8.67083 | 22848 ft | 441 kts | 157° |
| 2026-05-06 19:33 | 49.02487 | 8.68920 | 22850 ft | 443 kts | 157° |
| 2026-05-06 19:33 | 48.99646 | 8.70764 | 22852 ft | 444 kts | 157° |
| 2026-05-06 19:34 | 48.96841 | 8.72583 | 22854 ft | 444 kts | 157° |
| 2026-05-06 19:34 | 48.93999 | 8.74426 | 22857 ft | 444 kts | 157° |
| 2026-05-06 19:34 | 48.91079 | 8.75973 | 22855 ft | 444 kts | 166° |
| 2026-05-06 19:34 | 48.88040 | 8.76767 | 22860 ft | 444 kts | 175° |
| 2026-05-06 19:35 | 48.84948 | 8.76793 | 22862 ft | 445 kts | 184° |
| 2026-05-06 19:35 | 48.81886 | 8.76122 | 22861 ft | 445 kts | 190° |
| 2026-05-06 19:35 | 48.78826 | 8.75289 | 22866 ft | 445 kts | 190° |
| 2026-05-06 19:35 | 48.75772 | 8.74464 | 22862 ft | 446 kts | 190° |
| 2026-05-06 19:36 | 48.72712 | 8.73643 | 22862 ft | 446 kts | 190° |
| 2026-05-06 19:36 | 48.69652 | 8.72827 | 22869 ft | 447 kts | 190° |
| 2026-05-06 19:36 | 48.66594 | 8.72013 | 22871 ft | 447 kts | 189° |
| 2026-05-06 19:36 | 48.63525 | 8.71203 | 22878 ft | 447 kts | 189° |
| 2026-05-06 19:37 | 48.60461 | 8.70394 | 22879 ft | 447 kts | 189° |
| 2026-05-06 19:37 | 48.57395 | 8.69579 | 22875 ft | 448 kts | 190° |
| 2026-05-06 19:37 | 48.54366 | 8.68771 | 22781 ft | 448 kts | 190° |
| 2026-05-06 19:37 | 48.52281 | 8.68215 | 22432 ft | 453 kts | 190° |
| 2026-05-06 19:38 | 48.48157 | 8.67113 | 22081 ft | 455 kts | 190° |
| 2026-05-06 19:38 | 48.45041 | 8.66285 | 21813 ft | 454 kts | 190° |
| 2026-05-06 19:38 | 48.41896 | 8.65454 | 21546 ft | 452 kts | 190° |
| 2026-05-06 19:38 | 48.38849 | 8.64655 | 21291 ft | 450 kts | 190° |
| 2026-05-06 19:39 | 48.35770 | 8.63826 | 21035 ft | 448 kts | 191° |
| 2026-05-06 19:39 | 48.32710 | 8.62937 | 20773 ft | 446 kts | 192° |
| 2026-05-06 19:39 | 48.29672 | 8.62008 | 20521 ft | 444 kts | 192° |
| 2026-05-06 19:39 | 48.26654 | 8.61067 | 20269 ft | 442 kts | 192° |
| 2026-05-06 19:40 | 48.23648 | 8.60129 | 20019 ft | 440 kts | 192° |
| 2026-05-06 19:40 | 48.20649 | 8.59205 | 19772 ft | 438 kts | 192° |
| 2026-05-06 19:40 | 48.17670 | 8.58302 | 19525 ft | 436 kts | 192° |
| 2026-05-06 19:40 | 48.14700 | 8.57410 | 19277 ft | 434 kts | 192° |
| 2026-05-06 19:41 | 48.11742 | 8.56529 | 19027 ft | 432 kts | 192° |
| 2026-05-06 19:41 | 48.08809 | 8.55662 | 18799 ft | 430 kts | 192° |
| 2026-05-06 19:41 | 48.05873 | 8.54795 | 18558 ft | 429 kts | 192° |
| 2026-05-06 19:41 | 48.02988 | 8.53942 | 18321 ft | 427 kts | 192° |
| 2026-05-06 19:42 | 48.00093 | 8.53129 | 17579 ft | 422 kts | 189° |
| 2026-05-06 19:42 | 47.97162 | 8.52966 | 16865 ft | 419 kts | 178° |
| 2026-05-06 19:42 | 47.94305 | 8.53676 | 16174 ft | 416 kts | 166° |
| 2026-05-06 19:42 | 47.91623 | 8.55229 | 15511 ft | 413 kts | 155° |
| 2026-05-06 19:43 | 47.89216 | 8.57518 | 14871 ft | 410 kts | 144° |
| 2026-05-06 19:43 | 47.87018 | 8.60204 | 14243 ft | 406 kts | 143° |
| 2026-05-06 19:43 | 47.84848 | 8.62859 | 13639 ft | 401 kts | 143° |
| 2026-05-06 19:43 | 47.82702 | 8.65474 | 13007 ft | 395 kts | 143° |
| 2026-05-06 19:44 | 47.80583 | 8.68044 | 12449 ft | 389 kts | 143° |
| 2026-05-06 19:44 | 47.78503 | 8.70561 | 11877 ft | 384 kts | 143° |
| 2026-05-06 19:44 | 47.76438 | 8.73054 | 11343 ft | 379 kts | 144° |
| 2026-05-06 19:44 | 47.74460 | 8.75444 | 11198 ft | 364 kts | 144° |
| 2026-05-06 19:45 | 47.72544 | 8.77765 | 11069 ft | 349 kts | 144° |
| 2026-05-06 19:45 | 47.70741 | 8.79948 | 10948 ft | 336 kts | 144° |
| 2026-05-06 19:45 | 47.68962 | 8.82096 | 10821 ft | 323 kts | 144° |
| 2026-05-06 19:45 | 47.67249 | 8.84155 | 10698 ft | 311 kts | 144° |
| 2026-05-06 19:46 | 47.65572 | 8.86171 | 10550 ft | 301 kts | 145° |
| 2026-05-06 19:46 | 47.63980 | 8.88084 | 10355 ft | 294 kts | 145° |
| 2026-05-06 19:46 | 47.62465 | 8.90137 | 10290 ft | 298 kts | 135° |
| 2026-05-06 19:46 | 47.61250 | 8.92653 | 10130 ft | 302 kts | 122° |
| 2026-05-06 19:47 | 47.60288 | 8.95422 | 9976 ft | 302 kts | 122° |
| 2026-05-06 19:47 | 47.59029 | 8.97859 | 9557 ft | 298 kts | 144° |
| 2026-05-06 19:47 | 47.57231 | 8.99264 | 9057 ft | 288 kts | 169° |
| 2026-05-06 19:47 | 47.55295 | 8.99520 | 8709 ft | 275 kts | 191° |
| 2026-05-06 19:48 | 47.53856 | 8.98983 | 8410 ft | 269 kts | 207° |
| 2026-05-06 19:48 | 47.52306 | 8.97514 | 7998 ft | 263 kts | 222° |
| 2026-05-06 19:48 | 47.50904 | 8.95778 | 7593 ft | 262 kts | 222° |
| 2026-05-06 19:48 | 47.49489 | 8.94029 | 6959 ft | 270 kts | 222° |
| 2026-05-06 19:49 | 47.48024 | 8.92221 | 6237 ft | 280 kts | 222° |
| 2026-05-06 19:49 | 47.46530 | 8.90387 | 5898 ft | 274 kts | 222° |
| 2026-05-06 19:49 | 47.45094 | 8.88631 | 5769 ft | 260 kts | 223° |
| 2026-05-06 19:49 | 47.44008 | 8.86686 | 5656 ft | 242 kts | 246° |
| 2026-05-06 19:50 | 47.43673 | 8.84307 | 5366 ft | 239 kts | 272° |
| 2026-05-06 19:50 | 47.43848 | 8.81882 | 5059 ft | 235 kts | 275° |
| 2026-05-06 19:50 | 47.44030 | 8.79547 | 5000 ft | 222 kts | 274° |
| 2026-05-06 19:50 | 47.44198 | 8.77294 | 4587 ft | 220 kts | 274° |
| 2026-05-06 19:51 | 47.44361 | 8.75050 | 4176 ft | 216 kts | 274° |
| 2026-05-06 19:51 | 47.44517 | 8.72912 | 3844 ft | 202 kts | 274° |
| 2026-05-06 19:51 | 47.44663 | 8.70904 | 3562 ft | 190 kts | 274° |
| 2026-05-06 19:51 | 47.44799 | 8.69041 | 3285 ft | 173 kts | 274° |
| 2026-05-06 19:52 | 47.44917 | 8.67415 | 3043 ft | 151 kts | 274° |
| 2026-05-06 19:52 | 47.45024 | 8.65923 | 2821 ft | 142 kts | 274° |
| 2026-05-06 19:52 | 47.45128 | 8.64480 | 2589 ft | 140 kts | 275° |
| 2026-05-06 19:52 | 47.45231 | 8.63058 | 2380 ft | 140 kts | 274° |
| 2026-05-06 19:53 | 47.45334 | 8.61631 | 2156 ft | 141 kts | 275° |
| 2026-05-06 19:53 | 47.45436 | 8.60193 | 1944 ft | 141 kts | 275° |
| 2026-05-06 19:53 | 47.45538 | 8.58758 | 1735 ft | 140 kts | 275° |
| 2026-05-06 19:53 | 47.45643 | 8.57332 | 1510 ft | 139 kts | 275° |
| 2026-05-06 19:54 | 47.45741 | 8.55951 | 1414 ft | 126 kts | 275° |
| 2026-05-06 19:54 | 47.45817 | 8.54848 | 1399 ft | 70 kts | 275° |
| 2026-05-06 19:54 | 47.45823 | 8.54496 | 1398 ft | 28 kts | 257° |
| 2026-05-06 19:54 | 47.45743 | 8.54249 | 1401 ft | 26 kts | 224° |
| 2026-05-06 19:55 | 47.45608 | 8.54295 | 1402 ft | 23 kts | 113° |
| 2026-05-06 19:55 | 47.45558 | 8.54515 | 1402 ft | 22 kts | 108° |
| 2026-05-06 19:55 | 47.45512 | 8.54724 | 1404 ft | 21 kts | 108° |
| 2026-05-06 19:55 | 47.45468 | 8.54922 | 1401 ft | 20 kts | 108° |
| 2026-05-06 19:56 | 47.45426 | 8.55104 | 1403 ft | 18 kts | 109° |
| 2026-05-06 19:56 | 47.45386 | 8.55277 | 1402 ft | 18 kts | 110° |
| 2026-05-06 19:56 | 47.45395 | 8.55356 | 1403 ft | 9 kts | 32° |
| 2026-05-06 19:56 | 47.45447 | 8.55400 | 1404 ft | 8 kts | 26° |
| 2026-05-06 19:57 | 47.45522 | 8.55461 | 1403 ft | 10 kts | 51° |
| 2026-05-06 19:57 | 47.45520 | 8.55557 | 1399 ft | 6 kts | 105° |
| 2026-05-06 19:57 | 47.45501 | 8.55580 | 1401 ft | 5 kts | 159° |
| 2026-05-06 19:57 | 47.45470 | 8.55575 | 1397 ft | 4 kts | 187° |
| 2026-05-06 19:58 | 47.45447 | 8.55572 | 1397 ft | 2 kts | 185° |
| 2026-05-06 19:58 | 47.45441 | 8.55571 | 1397 ft | 0 kts | 186° |